Time;durP1;ratioP1;P1;durP2;ratioP2;P2;SDS_P1;SDS_P2;PMS_P1;PMS_P2;Temp;Humidity;BMP_temperature;BMP_pressure;BME280_temperature;BME280_humidity;BME280_pressure;Samples;Min_cycle;Max_cycle;Signal;HPM_P1;HPM_P2
2022/12/05 00:00:31;;;;;;;16.60;9.47;;;;;;;;;;5028204;28;20048;-57
2022/12/05 00:02:56;;;;;;;17.33;9.68;;;;;;;;;;5031402;28;20419;-57
2022/12/05 00:05:22;;;;;;;17.53;8.67;;;;;;;;;;5018405;28;20110;-57
2022/12/05 00:07:47;;;;;;;16.95;8.95;;;;;;;;;;5041748;28;20025;-57
2022/12/05 00:10:12;;;;;;;17.23;9.33;;;;;;;;;;5045646;28;20025;-56
2022/12/05 00:12:38;;;;;;;16.40;8.98;;;;;;;;;;5023820;28;20053;-57
2022/12/05 00:15:03;;;;;;;16.00;9.37;;;;;;;;;;5022648;28;20026;-57
2022/12/05 00:17:30;;;;;;;14.75;8.32;;;;;;;;;;5014874;28;20031;-57
2022/12/05 00:19:55;;;;;;;;;;;;;;;;;;5026885;28;20155;-58
2022/12/05 00:22:20;;;;;;;14.93;8.32;;;;;;;;;;5022895;28;20063;-58
2022/12/05 00:24:45;;;;;;;16.90;8.82;;;;;;;;;;5022599;28;20096;-58
2022/12/05 00:27:10;;;;;;;16.50;9.17;;;;;;;;;;5027552;28;20064;-58
2022/12/05 00:29:35;;;;;;;17.07;8.43;;;;;;;;;;5035485;28;20025;-57
2022/12/05 00:32:01;;;;;;;15.87;9.17;;;;;;;;;;5033637;28;20087;-56
2022/12/05 00:34:26;;;;;;;16.33;8.50;;;;;;;;;;5033662;28;20061;-57
2022/12/05 00:36:51;;;;;;;15.20;8.00;;;;;;;;;;5032267;28;20033;-58
2022/12/05 00:39:16;;;;;;;16.47;9.37;;;;;;;;;;5033724;28;20029;-57
2022/12/05 00:41:42;;;;;;;15.87;8.83;;;;;;;;;;5034192;28;20112;-58
2022/12/05 00:44:08;;;;;;;16.63;9.23;;;;;;;;;;5031064;28;20033;-56
2022/12/05 00:46:34;;;;;;;16.08;8.80;;;;;;;;;;5029042;28;20022;-57
2022/12/05 00:49:00;;;;;;;17.75;9.98;;;;;;;;;;5026500;28;20036;-57
2022/12/05 00:51:36;;;;;;;17.73;9.60;;;;;;;;;;5031791;28;20492;-57
2022/12/05 00:54:02;;;;;;;16.80;9.02;;;;;;;;;;5032190;28;20036;-57
2022/12/05 00:56:28;;;;;;;16.63;9.35;;;;;;;;;;5021612;28;20050;-57
2022/12/05 00:58:54;;;;;;;17.80;9.65;;;;;;;;;;5025597;28;20044;-57
2022/12/05 01:01:21;;;;;;;18.38;10.02;;;;;;;;;;5030172;28;20030;-57
2022/12/05 01:03:46;;;;;;;18.48;9.70;;;;;;;;;;5029766;28;20018;-57
2022/12/05 01:06:12;;;;;;;18.20;10.23;;;;;;;;;;5032249;28;20025;-57
2022/12/05 01:08:38;;;;;;;19.15;10.68;;;;;;;;;;5030844;28;20060;-56
2022/12/05 01:11:04;;;;;;;18.73;9.98;;;;;;;;;;5028776;28;20426;-56
2022/12/05 01:13:30;;;;;;;19.67;10.38;;;;;;;;;;5031798;28;20057;-56
2022/12/05 01:15:55;;;;;;;17.25;9.95;;;;;;;;;;5022046;28;20021;-56
2022/12/05 01:18:21;;;;;;;17.47;9.83;;;;;;;;;;5027033;28;20101;-56
2022/12/05 01:20:46;;;;;;;20.17;10.82;;;;;;;;;;5027659;28;20546;-57
2022/12/05 01:23:12;;;;;;;18.75;9.70;;;;;;;;;;5028871;28;20037;-57
2022/12/05 01:25:41;;;;;;;19.98;10.63;;;;;;;;;;5029690;28;20054;-57
2022/12/05 01:28:06;;;;;;;20.05;10.75;;;;;;;;;;5029563;28;20091;-57
2022/12/05 01:30:32;;;;;;;18.75;10.15;;;;;;;;;;5028645;28;20035;-57
2022/12/05 01:32:58;;;;;;;19.30;10.48;;;;;;;;;;5028250;28;20039;-57
2022/12/05 01:35:23;;;;;;;18.30;10.23;;;;;;;;;;5022241;28;20049;-57
2022/12/05 01:37:48;;;;;;;18.43;10.63;;;;;;;;;;5029436;28;20042;-57
2022/12/05 01:40:13;;;;;;;18.50;10.03;;;;;;;;;;5019327;28;20064;-57
2022/12/05 01:42:39;;;;;;;19.40;10.80;;;;;;;;;;5011978;28;20096;-57
2022/12/05 01:45:14;;;;;;;20.10;10.60;;;;;;;;;;5021956;28;20492;-58
2022/12/05 01:47:39;;;;;;;19.25;10.13;;;;;;;;;;5018908;28;20283;-56
2022/12/05 01:50:05;;;;;;;20.43;10.33;;;;;;;;;;5019665;28;20044;-58
2022/12/05 01:52:30;;;;;;;19.75;10.40;;;;;;;;;;5031285;28;20550;-57
2022/12/05 01:54:58;;;;;;;19.83;10.50;;;;;;;;;;5026005;28;20030;-57
2022/12/05 01:57:24;;;;;;;19.13;9.63;;;;;;;;;;5018032;28;20109;-56
2022/12/05 01:59:51;;;;;;;19.15;10.57;;;;;;;;;;5025984;28;20128;-56
2022/12/05 02:02:16;;;;;;;18.70;10.50;;;;;;;;;;5028189;28;20032;-57
2022/12/05 02:04:50;;;;;;;18.17;9.48;;;;;;;;;;5020301;28;20022;-57
2022/12/05 02:07:16;;;;;;;17.60;9.65;;;;;;;;;;5039195;28;20044;-57
2022/12/05 02:09:42;;;;;;;18.63;10.10;;;;;;;;;;5041337;28;20496;-57
2022/12/05 02:12:07;;;;;;;18.77;9.90;;;;;;;;;;5030434;28;20053;-56
2022/12/05 02:14:52;;;;;;;20.33;10.53;;;;;;;;;;5028688;28;20044;-58
2022/12/05 02:17:23;;;;;;;19.35;10.77;;;;;;;;;;5029182;28;20028;-57
2022/12/05 02:19:48;;;;;;;17.10;9.13;;;;;;;;;;5029565;28;20025;-56
2022/12/05 02:22:32;;;;;;;18.67;10.30;;;;;;;;;;5036245;28;20026;-57
2022/12/05 02:24:57;;;;;;;17.08;9.38;;;;;;;;;;5030768;28;20021;-58
2022/12/05 02:27:41;;;;;;;19.98;10.30;;;;;;;;;;5030380;28;20026;-58
2022/12/05 02:30:11;;;;;;;19.88;10.45;;;;;;;;;;5030934;28;20530;-58
2022/12/05 02:32:54;;;;;;;17.65;9.80;;;;;;;;;;5031023;28;20110;-57
2022/12/05 02:35:26;;;;;;;16.13;8.80;;;;;;;;;;5030457;28;20029;-58
2022/12/05 02:38:09;;;;;;;16.45;8.93;;;;;;;;;;5029396;28;20021;-58
2022/12/05 02:40:53;;;;;;;18.13;9.00;;;;;;;;;;5025991;28;20033;-57
2022/12/05 02:43:21;;;;;;;17.02;8.98;;;;;;;;;;5011785;28;20018;-57
2022/12/05 02:45:48;;;;;;;17.40;9.18;;;;;;;;;;5023966;28;20496;-57
2022/12/05 02:48:14;;;;;;;15.90;8.80;;;;;;;;;;5017712;28;20096;-58
2022/12/05 02:50:40;;;;;;;17.27;9.27;;;;;;;;;;5024728;28;20117;-57
2022/12/05 02:53:09;;;;;;;16.30;9.05;;;;;;;;;;5024735;28;20108;-58
2022/12/05 02:55:35;;;;;;;16.77;8.93;;;;;;;;;;5027267;28;20075;-58
2022/12/05 02:58:03;;;;;;;16.83;9.02;;;;;;;;;;5029737;28;20021;-58
2022/12/05 03:00:28;;;;;;;17.08;9.02;;;;;;;;;;5027720;28;20056;-57
2022/12/05 03:02:55;;;;;;;17.03;8.30;;;;;;;;;;5028295;28;20025;-57
2022/12/05 03:05:30;;;;;;;16.33;8.68;;;;;;;;;;5026140;28;20029;-57
2022/12/05 03:07:57;;;;;;;15.23;8.63;;;;;;;;;;5027023;28;20036;-57
2022/12/05 03:10:25;;;;;;;16.15;8.95;;;;;;;;;;5028860;28;20032;-58
2022/12/05 03:12:53;;;;;;;15.20;8.88;;;;;;;;;;5017646;28;20057;-58
2022/12/05 03:15:21;;;;;;;16.48;9.00;;;;;;;;;;5034977;28;20025;-58
2022/12/05 03:17:51;;;;;;;17.27;8.20;;;;;;;;;;5027667;28;20087;-59
2022/12/05 03:20:33;;;;;;;15.35;8.45;;;;;;;;;;5027404;28;20105;-57
2022/12/05 03:23:01;;;;;;;15.95;8.90;;;;;;;;;;5026504;28;20477;-58
2022/12/05 03:25:33;;;;;;;15.88;9.30;;;;;;;;;;5035267;28;20475;-57
2022/12/05 03:28:04;;;;;;;15.00;8.05;;;;;;;;;;5029177;28;20057;-58
2022/12/05 03:30:33;;;;;;;14.10;8.15;;;;;;;;;;5025999;28;20104;-58
2022/12/05 03:33:04;;;;;;;15.55;8.30;;;;;;;;;;5028603;28;20087;-57
2022/12/05 03:35:38;;;;;;;14.85;7.90;;;;;;;;;;5025108;28;20036;-57
2022/12/05 03:38:03;;;;;;;14.85;8.20;;;;;;;;;;5027684;28;20055;-58
2022/12/05 03:40:41;;;;;;;14.60;7.80;;;;;;;;;;5028539;28;20048;-57
2022/12/05 03:43:12;;;;;;;15.00;7.25;;;;;;;;;;5047299;28;20427;-58
2022/12/05 03:45:41;;;;;;;14.50;7.80;;;;;;;;;;5029131;28;20060;-57
2022/12/05 03:48:09;;;;;;;13.88;7.60;;;;;;;;;;5030054;28;20133;-57
2022/12/05 03:50:37;;;;;;;15.82;7.43;;;;;;;;;;5026316;28;20113;-57
2022/12/05 03:53:04;;;;;;;14.32;7.93;;;;;;;;;;5029357;28;20063;-57
2022/12/05 03:55:32;;;;;;;14.20;7.30;;;;;;;;;;5025827;28;20108;-57
2022/12/05 03:58:04;;;;;;;13.57;7.57;;;;;;;;;;5029386;28;20385;-58
2022/12/05 04:00:33;;;;;;;14.15;7.80;;;;;;;;;;5024726;28;20029;-57
2022/12/05 04:03:04;;;;;;;15.68;7.80;;;;;;;;;;5029296;28;20376;-57
2022/12/05 04:05:43;;;;;;;13.00;7.30;;;;;;;;;;5029990;28;20040;-57
2022/12/05 04:08:27;;;;;;;14.15;7.80;;;;;;;;;;5045257;28;20056;-58
2022/12/05 04:10:55;;;;;;;13.18;7.28;;;;;;;;;;5032237;28;20053;-58
2022/12/05 04:13:20;;;;;;;14.07;7.15;;;;;;;;;;5022507;28;20065;-58
2022/12/05 04:18:33;;;;;;;13.48;6.93;;;;;;;;;;5026532;28;20499;-57
2022/12/05 04:25:31;;;;;;;13.07;7.43;;;;;;;;;;5023880;28;20028;-58
2022/12/05 04:26:30;;;;;;;13.05;7.70;;;;;;;;;;5025359;28;20361;-58
2022/12/05 04:29:04;;;;;;;14.15;8.00;;;;;;;;;;5024676;28;20028;-58
2022/12/05 04:31:32;;;;;;;15.32;7.72;;;;;;;;;;5026560;28;20440;-58
2022/12/05 04:34:00;;;;;;;13.35;7.53;;;;;;;;;;5018965;28;20083;-58
2022/12/05 04:36:31;;;;;;;13.60;7.55;;;;;;;;;;5019618;28;20044;-58
2022/12/05 04:38:59;;;;;;;15.30;7.78;;;;;;;;;;5020806;28;20021;-59
2022/12/05 04:41:26;;;;;;;12.40;7.00;;;;;;;;;;5028900;28;20036;-57
2022/12/05 04:43:53;;;;;;;14.13;7.70;;;;;;;;;;5026994;28;20366;-58
2022/12/05 04:46:19;;;;;;;12.07;6.55;;;;;;;;;;5028510;28;20037;-58
2022/12/05 04:48:47;;;;;;;12.27;7.57;;;;;;;;;;5028924;28;20481;-58
2022/12/05 04:51:15;;;;;;;13.30;7.50;;;;;;;;;;5028537;28;20025;-58
2022/12/05 04:53:41;;;;;;;13.07;6.55;;;;;;;;;;5027609;28;20025;-57
2022/12/05 04:56:08;;;;;;;13.73;7.70;;;;;;;;;;5027223;28;20429;-58
2022/12/05 04:58:34;;;;;;;13.00;6.70;;;;;;;;;;5035221;28;20025;-58
2022/12/05 05:00:59;;;;;;;12.82;7.30;;;;;;;;;;5028441;28;20032;-58
2022/12/05 05:03:28;;;;;;;13.40;7.57;;;;;;;;;;5035826;28;20448;-58
2022/12/05 05:05:54;;;;;;;12.43;6.70;;;;;;;;;;5018153;28;20310;-58
2022/12/05 05:08:24;;;;;;;12.68;7.35;;;;;;;;;;5018633;28;20033;-58
2022/12/05 05:11:08;;;;;;;11.70;6.63;;;;;;;;;;5027567;28;20017;-58
2022/12/05 05:13:33;;;;;;;12.65;7.68;;;;;;;;;;5023637;28;20068;-58
2022/12/05 05:15:58;;;;;;;13.57;7.03;;;;;;;;;;5027375;28;20551;-58
2022/12/05 05:18:23;;;;;;;13.27;7.67;;;;;;;;;;5031405;28;20059;-57
2022/12/05 05:20:49;;;;;;;13.02;6.70;;;;;;;;;;5031495;28;20022;-58
2022/12/05 05:23:14;;;;;;;12.00;6.73;;;;;;;;;;5026710;28;20022;-59
2022/12/05 05:25:39;;;;;;;11.67;6.27;;;;;;;;;;5026851;28;20022;-58
2022/12/05 05:28:04;;;;;;;12.57;7.13;;;;;;;;;;5027858;28;20480;-58
2022/12/05 05:30:29;;;;;;;12.43;7.23;;;;;;;;;;5031421;28;20104;-57
2022/12/05 05:32:55;;;;;;;13.93;7.30;;;;;;;;;;5026715;28;20147;-57
2022/12/05 05:35:20;;;;;;;12.07;7.03;;;;;;;;;;5025828;28;20029;-57
2022/12/05 05:37:45;;;;;;;13.95;7.35;;;;;;;;;;5028791;28;20433;-57
2022/12/05 05:40:11;;;;;;;11.70;7.18;;;;;;;;;;5028696;28;20075;-58
2022/12/05 05:42:44;;;;;;;12.50;6.57;;;;;;;;;;5021759;28;20099;-58
2022/12/05 05:45:10;;;;;;;12.30;7.50;;;;;;;;;;5025155;28;20040;-58
2022/12/05 05:47:35;;;;;;;11.77;7.22;;;;;;;;;;5021347;28;20029;-58
2022/12/05 05:50:00;;;;;;;13.50;7.03;;;;;;;;;;5025083;28;20029;-58
2022/12/05 05:52:25;;;;;;;12.17;6.83;;;;;;;;;;5022778;28;20030;-58
2022/12/05 05:54:50;;;;;;;13.07;7.30;;;;;;;;;;5025404;28;20025;-59
2022/12/05 05:57:15;;;;;;;11.93;6.63;;;;;;;;;;5026826;28;20029;-59
2022/12/05 05:59:41;;;;;;;11.80;6.80;;;;;;;;;;5027074;28;20032;-58
2022/12/05 06:02:06;;;;;;;11.70;6.43;;;;;;;;;;5028293;28;20022;-57
2022/12/05 06:04:33;;;;;;;12.03;6.50;;;;;;;;;;5029042;28;20603;-58
2022/12/05 06:06:58;;;;;;;12.55;7.60;;;;;;;;;;5024340;28;20029;-58
2022/12/05 06:09:23;;;;;;;12.93;7.27;;;;;;;;;;5024345;28;20051;-58
2022/12/05 06:11:48;;;;;;;12.43;7.30;;;;;;;;;;5025939;28;20050;-58
2022/12/05 06:14:14;;;;;;;12.73;7.17;;;;;;;;;;5026348;28;20359;-58
2022/12/05 06:16:39;;;;;;;15.10;8.60;;;;;;;;;;5028936;28;20038;-58
2022/12/05 06:19:04;;;;;;;13.30;7.30;;;;;;;;;;5031126;28;20111;-58
2022/12/05 06:21:29;;;;;;;14.13;8.23;;;;;;;;;;5029642;28;20021;-57
2022/12/05 06:23:54;;;;;;;13.53;7.20;;;;;;;;;;5030400;28;20024;-57
2022/12/05 06:26:20;;;;;;;13.20;7.07;;;;;;;;;;5026458;28;20488;-57
2022/12/05 06:28:45;;;;;;;14.07;7.70;;;;;;;;;;5029529;28;20056;-58
2022/12/05 06:31:15;;;;;;;15.27;8.53;;;;;;;;;;5026570;28;20054;-58
2022/12/05 06:33:40;;;;;;;13.02;7.45;;;;;;;;;;5030045;28;20022;-57
2022/12/05 06:36:07;;;;;;;15.00;7.80;;;;;;;;;;5029299;28;20357;-58
2022/12/05 06:38:32;;;;;;;12.43;7.22;;;;;;;;;;5031469;28;20028;-57
2022/12/05 06:40:57;;;;;;;12.90;7.33;;;;;;;;;;5031611;28;20018;-58
2022/12/05 06:43:22;;;;;;;13.43;7.23;;;;;;;;;;5027510;28;20036;-57
2022/12/05 06:45:48;;;;;;;13.65;8.00;;;;;;;;;;5031778;28;20492;-58
2022/12/05 06:48:13;;;;;;;13.20;7.60;;;;;;;;;;5031299;28;20021;-57
2022/12/05 06:50:38;;;;;;;15.10;6.97;;;;;;;;;;5028580;28;20104;-57
2022/12/05 06:53:03;;;;;;;14.32;7.45;;;;;;;;;;5031197;28;20108;-58
2022/12/05 06:55:28;;;;;;;13.80;7.73;;;;;;;;;;5030005;28;20025;-58
2022/12/05 06:57:54;;;;;;;13.40;6.90;;;;;;;;;;5031081;28;20045;-59
2022/12/05 07:03:03;;;;;;;12.93;6.88;;;;;;;;;;5027571;28;20101;-59
2022/12/05 07:05:28;;;;;;;11.67;6.57;;;;;;;;;;5019920;28;20104;-59
2022/12/05 07:07:53;;;;;;;12.57;6.70;;;;;;;;;;5018453;28;20083;-58
2022/12/05 07:10:18;;;;;;;12.43;7.37;;;;;;;;;;5031208;28;20041;-57
2022/12/05 07:12:43;;;;;;;14.27;7.70;;;;;;;;;;5025318;28;20037;-58
2022/12/05 07:15:09;;;;;;;13.00;6.90;;;;;;;;;;5031203;28;20040;-58
2022/12/05 07:17:35;;;;;;;12.93;7.22;;;;;;;;;;5024526;28;20034;-58
2022/12/05 07:20:01;;;;;;;13.05;7.68;;;;;;;;;;5011323;28;20096;-59
2022/12/05 07:22:26;;;;;;;13.37;7.33;;;;;;;;;;5026867;28;20104;-59
2022/12/05 07:24:52;;;;;;;12.47;7.00;;;;;;;;;;5020199;28;20093;-58
2022/12/05 07:27:17;;;;;;;14.07;7.68;;;;;;;;;;5028121;28;20033;-59
2022/12/05 07:29:42;;;;;;;12.57;6.82;;;;;;;;;;5024961;28;20029;-59
2022/12/05 07:32:07;;;;;;;13.83;6.77;;;;;;;;;;5019004;28;20521;-58
2022/12/05 07:34:32;;;;;;;14.10;7.70;;;;;;;;;;5029196;28;20040;-58
2022/12/05 07:36:58;;;;;;;13.53;6.60;;;;;;;;;;5025059;28;20029;-59
2022/12/05 07:39:23;;;;;;;13.80;7.00;;;;;;;;;;5023405;28;20072;-57
2022/12/05 07:41:49;;;;;;;12.27;6.90;;;;;;;;;;5028857;28;20108;-59
2022/12/05 07:44:14;;;;;;;14.67;7.50;;;;;;;;;;5027762;28;20142;-57
2022/12/05 07:46:39;;;;;;;11.13;6.10;;;;;;;;;;5030660;28;20040;-57
2022/12/05 07:49:05;;;;;;;12.15;6.95;;;;;;;;;;5025524;28;20025;-58
2022/12/05 07:51:31;;;;;;;12.68;7.20;;;;;;;;;;5025221;28;20385;-59
2022/12/05 07:53:57;;;;;;;14.05;7.80;;;;;;;;;;5030180;28;20028;-58
2022/12/05 07:56:22;;;;;;;11.85;6.57;;;;;;;;;;5029687;28;20503;-58
2022/12/05 07:58:48;;;;;;;14.40;6.40;;;;;;;;;;5028870;28;20029;-59
2022/12/05 08:01:15;;;;;;;12.45;7.15;;;;;;;;;;5024886;28;20032;-59
2022/12/05 08:03:40;;;;;;;13.70;7.18;;;;;;;;;;5029629;28;20032;-59
2022/12/05 08:06:07;;;;;;;13.82;8.05;;;;;;;;;;5022509;28;20029;-58
2022/12/05 08:08:32;;;;;;;14.10;7.53;;;;;;;;;;5028764;28;20041;-58
2022/12/05 08:11:14;;;;;;;12.50;6.90;;;;;;;;;;5029327;28;20052;-59
2022/12/05 08:13:40;;;;;;;14.52;7.20;;;;;;;;;;5029956;28;20392;-57
2022/12/05 08:16:06;;;;;;;13.57;7.95;;;;;;;;;;5029022;28;20477;-58
2022/12/05 08:18:32;;;;;;;12.93;7.10;;;;;;;;;;5028577;28;20045;-58
2022/12/05 08:21:01;;;;;;;13.50;7.27;;;;;;;;;;5029334;28;20049;-58
2022/12/05 08:23:27;;;;;;;12.82;7.10;;;;;;;;;;5029994;28;20033;-58
2022/12/05 08:25:52;;;;;;;14.60;7.25;;;;;;;;;;5029996;28;20105;-58
2022/12/05 08:28:17;;;;;;;11.40;6.47;;;;;;;;;;5024722;28;20104;-58
2022/12/05 08:30:42;;;;;;;13.10;7.27;;;;;;;;;;5028675;28;20476;-58
2022/12/05 08:33:08;;;;;;;14.83;7.83;;;;;;;;;;5029643;28;20116;-58
2022/12/05 08:35:35;;;;;;;13.07;6.93;;;;;;;;;;5030084;28;20465;-58
2022/12/05 08:38:00;;;;;;;13.93;6.97;;;;;;;;;;5027920;28;20032;-58
2022/12/05 08:40:26;;;;;;;12.53;6.53;;;;;;;;;;5029852;28;20108;-58
2022/12/05 08:42:51;;;;;;;13.47;8.10;;;;;;;;;;5029700;28;20053;-58
2022/12/05 08:45:16;;;;;;;15.10;7.70;;;;;;;;;;5029591;28;20026;-57
2022/12/05 08:47:41;;;;;;;14.03;8.17;;;;;;;;;;5027049;28;20049;-58
2022/12/05 08:50:06;;;;;;;15.27;7.57;;;;;;;;;;5032290;28;20036;-57
2022/12/05 08:52:32;;;;;;;15.43;7.82;;;;;;;;;;5033046;28;20079;-58
2022/12/05 08:54:57;;;;;;;16.70;7.60;;;;;;;;;;5033813;28;20518;-58
2022/12/05 08:57:22;;;;;;;12.63;7.60;;;;;;;;;;5032061;28;20021;-59
2022/12/05 08:59:47;;;;;;;13.03;7.20;;;;;;;;;;5032463;28;20548;-58
2022/12/05 09:02:12;;;;;;;13.67;7.60;;;;;;;;;;5031619;28;20030;-59
2022/12/05 09:04:38;;;;;;;14.30;7.73;;;;;;;;;;5033487;28;20466;-58
2022/12/05 09:07:03;;;;;;;17.05;8.10;;;;;;;;;;5032493;28;20021;-58
2022/12/05 09:09:28;;;;;;;13.33;7.30;;;;;;;;;;5032401;28;20053;-58
2022/12/05 09:11:53;;;;;;;13.10;7.22;;;;;;;;;;5033202;28;20081;-59
2022/12/05 09:14:18;;;;;;;15.20;7.00;;;;;;;;;;5033075;28;20025;-58
2022/12/05 09:16:45;;;;;;;14.50;7.00;;;;;;;;;;5031810;28;20103;-58
2022/12/05 09:19:14;;;;;;;15.20;7.53;;;;;;;;;;5033270;28;20029;-58
2022/12/05 09:21:40;;;;;;;13.02;7.50;;;;;;;;;;5031524;28;20028;-58
2022/12/05 09:24:05;;;;;;;13.40;7.10;;;;;;;;;;5033101;28;20017;-58
2022/12/05 09:26:30;;;;;;;14.70;7.30;;;;;;;;;;5033035;28;20026;-59
2022/12/05 09:28:56;;;;;;;13.70;7.20;;;;;;;;;;5031581;28;20032;-58
2022/12/05 09:31:22;;;;;;;13.32;7.53;;;;;;;;;;5031754;28;20063;-59
2022/12/05 09:33:48;;;;;;;13.45;7.70;;;;;;;;;;5032734;28;20021;-58
2022/12/05 09:36:15;;;;;;;13.98;7.50;;;;;;;;;;5032993;28;20450;-58
2022/12/05 09:38:40;;;;;;;12.73;7.47;;;;;;;;;;5031681;28;20461;-58
2022/12/05 09:41:12;;;;;;;12.77;7.03;;;;;;;;;;5031758;28;20072;-59
2022/12/05 09:43:46;;;;;;;12.80;6.32;;;;;;;;;;5031629;28;20048;-59
2022/12/05 09:46:19;;;;;;;15.90;7.47;;;;;;;;;;5032821;28;20018;-59
2022/12/05 09:48:45;;;;;;;14.20;7.82;;;;;;;;;;5032496;28;20560;-59
2022/12/05 09:51:10;;;;;;;13.93;7.53;;;;;;;;;;5031693;28;20148;-59
2022/12/05 09:53:37;;;;;;;14.90;7.90;;;;;;;;;;5028456;28;20027;-59
2022/12/05 09:56:05;;;;;;;13.65;6.88;;;;;;;;;;5032787;28;20407;-59
2022/12/05 09:58:44;;;;;;;16.40;7.80;;;;;;;;;;5032304;28;20025;-59
2022/12/05 10:01:09;;;;;;;16.15;8.00;;;;;;;;;;5032473;28;20047;-59
2022/12/05 10:03:41;;;;;;;14.52;7.63;;;;;;;;;;5030193;28;20013;-57
2022/12/05 10:06:16;;;;;;;14.52;8.07;;;;;;;;;;5032505;28;20025;-58
2022/12/05 10:08:50;;;;;;;15.43;7.20;;;;;;;;;;5020303;28;20365;-59
2022/12/05 10:11:29;;;;;;;14.70;7.53;;;;;;;;;;5032247;28;20037;-58
2022/12/05 10:14:03;;;;;;;15.65;7.95;;;;;;;;;;5030128;28;20032;-58
2022/12/05 10:16:40;;;;;;;14.18;7.60;;;;;;;;;;5031477;28;20021;-57
2022/12/05 10:19:11;;;;;;;15.10;7.60;;;;;;;;;;5031944;28;20024;-58
2022/12/05 10:21:41;;;;;;;18.25;8.73;;;;;;;;;;5032137;28;20021;-58
2022/12/05 10:24:15;;;;;;;15.02;7.70;;;;;;;;;;5026576;28;20492;-60
2022/12/05 10:26:44;;;;;;;12.82;7.20;;;;;;;;;;5027713;28;20044;-58
2022/12/05 10:29:19;;;;;;;13.45;7.03;;;;;;;;;;5030949;28;20137;-59
2022/12/05 10:31:46;;;;;;;13.52;6.57;;;;;;;;;;5030710;28;20258;-58
2022/12/05 10:34:14;;;;;;;13.10;7.38;;;;;;;;;;5029234;28;20021;-58
2022/12/05 10:36:43;;;;;;;13.23;7.55;;;;;;;;;;5030421;28;20812;-58
2022/12/05 10:39:08;;;;;;;14.40;8.10;;;;;;;;;;5030804;28;20068;-58
2022/12/05 10:41:34;;;;;;;13.77;7.75;;;;;;;;;;5031864;28;20489;-58
2022/12/05 10:43:59;;;;;;;15.27;8.07;;;;;;;;;;5031231;28;20590;-58
2022/12/05 10:46:24;;;;;;;14.47;7.87;;;;;;;;;;5029345;28;20045;-58
2022/12/05 10:48:49;;;;;;;14.17;7.90;;;;;;;;;;5031589;28;20029;-58
2022/12/05 10:51:16;;;;;;;14.50;7.70;;;;;;;;;;5031706;28;20013;-58
2022/12/05 10:53:42;;;;;;;15.02;7.85;;;;;;;;;;5025903;28;20030;-58
2022/12/05 10:56:26;;;;;;;14.40;6.80;;;;;;;;;;5017832;28;20485;-58
2022/12/05 10:58:56;;;;;;;15.05;8.07;;;;;;;;;;5030880;28;20022;-58
2022/12/05 11:01:21;;;;;;;14.20;6.63;;;;;;;;;;5031165;28;20063;-57
2022/12/05 11:03:54;;;;;;;13.65;7.22;;;;;;;;;;5029977;28;20054;-58
2022/12/05 11:06:24;;;;;;;13.23;6.47;;;;;;;;;;5030152;28;20021;-60
2022/12/05 11:08:56;;;;;;;11.90;6.43;;;;;;;;;;5030292;28;20052;-58
2022/12/05 11:11:22;;;;;;;13.77;6.55;;;;;;;;;;5030265;28;20388;-58
2022/12/05 11:14:00;;;;;;;13.77;6.10;;;;;;;;;;5030791;28;20021;-58
2022/12/05 11:16:31;;;;;;;13.13;6.10;;;;;;;;;;5030432;28;20021;-57
2022/12/05 11:19:15;;;;;;;13.05;6.03;;;;;;;;;;5029081;28;20060;-58
2022/12/05 11:21:43;;;;;;;11.13;5.55;;;;;;;;;;5030577;28;20029;-58
2022/12/05 11:24:21;;;;;;;12.20;6.20;;;;;;;;;;5030264;28;20025;-58
2022/12/05 11:26:46;;;;;;;11.05;5.45;;;;;;;;;;5030834;28;20017;-58
2022/12/05 11:29:27;;;;;;;10.38;5.50;;;;;;;;;;5028559;28;20032;-58
2022/12/05 11:31:52;;;;;;;9.68;5.40;;;;;;;;;;5030629;28;20025;-58
2022/12/05 11:34:20;;;;;;;10.40;5.43;;;;;;;;;;5030542;28;20040;-58
2022/12/05 11:37:14;;;;;;;10.95;5.68;;;;;;;;;;5029622;28;20119;-59
2022/12/05 11:39:39;;;;;;;11.90;5.38;;;;;;;;;;5024967;28;20040;-58
2022/12/05 11:42:26;;;;;;;12.67;5.90;;;;;;;;;;5030617;28;20109;-58
2022/12/05 11:44:54;;;;;;;11.68;5.93;;;;;;;;;;5030437;28;20017;-57
2022/12/05 11:47:38;;;;;;;11.80;6.03;;;;;;;;;;5029754;28;20026;-59
2022/12/05 11:50:14;;;;;;;12.35;6.05;;;;;;;;;;5029364;28;20475;-59
2022/12/05 11:52:58;;;;;;;12.45;6.22;;;;;;;;;;5030357;28;20464;-58
2022/12/05 11:55:23;;;;;;;11.07;5.75;;;;;;;;;;5029864;28;20025;-58
2022/12/05 11:57:59;;;;;;;12.63;6.43;;;;;;;;;;5028792;28;20022;-58
2022/12/05 12:00:44;;;;;;;11.88;6.10;;;;;;;;;;5029612;28;20537;-58
2022/12/05 12:03:33;;;;;;;12.60;6.68;;;;;;;;;;5028737;28;20040;-59
2022/12/05 12:06:16;;;;;;;12.02;6.38;;;;;;;;;;5010673;28;20473;-58
2022/12/05 12:08:42;;;;;;;10.55;5.85;;;;;;;;;;5025307;28;20052;-59
2022/12/05 12:11:13;;;;;;;11.63;6.50;;;;;;;;;;5029516;28;20484;-59
2022/12/05 12:13:55;;;;;;;16.52;7.75;;;;;;;;;;5029888;28;20087;-58
2022/12/05 12:16:44;;;;;;;14.40;7.13;;;;;;;;;;5030371;28;20025;-58
2022/12/05 12:19:22;;;;;;;14.43;7.75;;;;;;;;;;5028881;28;20503;-59
2022/12/05 12:21:55;;;;;;;14.27;7.00;;;;;;;;;;5027375;28;20380;-58
2022/12/05 12:24:28;;;;;;;12.70;6.63;;;;;;;;;;5031216;28;20108;-58
2022/12/05 12:27:15;;;;;;;13.05;6.20;;;;;;;;;;5033905;28;20025;-58
2022/12/05 12:29:43;;;;;;;13.88;6.85;;;;;;;;;;5033013;28;20116;-58
2022/12/05 12:32:18;;;;;;;11.88;6.80;;;;;;;;;;5033263;28;20112;-58
2022/12/05 12:35:01;;;;;;;12.68;6.95;;;;;;;;;;5033853;28;20429;-58
2022/12/05 12:37:35;;;;;;;12.07;6.90;;;;;;;;;;5032166;28;20017;-58
2022/12/05 12:40:00;;;;;;;12.98;7.03;;;;;;;;;;5030803;28;20115;-59
2022/12/05 12:42:38;;;;;;;14.23;6.85;;;;;;;;;;5032873;28;20051;-58
2022/12/05 12:45:03;;;;;;;14.55;7.32;;;;;;;;;;5033553;28;20022;-57
2022/12/05 12:47:38;;;;;;;12.43;5.82;;;;;;;;;;5034036;28;20392;-58
2022/12/05 12:50:24;;;;;;;13.20;6.88;;;;;;;;;;5033818;28;20472;-57
2022/12/05 12:52:58;;;;;;;15.35;7.72;;;;;;;;;;5032536;28;20025;-58
2022/12/05 12:55:28;;;;;;;15.05;7.57;;;;;;;;;;5032744;28;20491;-58
2022/12/05 12:58:02;;;;;;;16.45;7.63;;;;;;;;;;5026669;28;20033;-59
2022/12/05 13:00:42;;;;;;;13.43;6.60;;;;;;;;;;5013918;28;20018;-59
2022/12/05 13:03:21;;;;;;;14.80;7.40;;;;;;;;;;5031991;28;20021;-57
2022/12/05 13:05:48;;;;;;;14.40;7.30;;;;;;;;;;5033253;28;20102;-58
2022/12/05 13:08:28;;;;;;;14.73;7.13;;;;;;;;;;5033449;28;20029;-58
2022/12/05 13:10:54;;;;;;;14.07;7.28;;;;;;;;;;5032681;28;20033;-58
2022/12/05 13:13:21;;;;;;;13.43;6.40;;;;;;;;;;5032510;28;20050;-56
2022/12/05 13:15:49;;;;;;;13.40;7.10;;;;;;;;;;5033318;28;20468;-57
2022/12/05 13:18:22;;;;;;;13.88;6.22;;;;;;;;;;5033314;28;20021;-58
2022/12/05 13:20:47;;;;;;;;;;;;;;;;;;5032912;28;20021;-57
2022/12/05 13:23:14;;;;;;;14.55;7.50;;;;;;;;;;5032132;28;19909;-56
2022/12/05 13:25:40;;;;;;;13.50;6.68;;;;;;;;;;5032507;28;20473;-58
2022/12/05 13:28:15;;;;;;;14.38;7.30;;;;;;;;;;5033393;28;20104;-57
2022/12/05 13:30:56;;;;;;;13.98;6.53;;;;;;;;;;5033078;28;20036;-57
2022/12/05 13:33:24;;;;;;;14.32;6.63;;;;;;;;;;5030776;28;20492;-57
2022/12/05 13:44:11;;;;;;;13.65;6.30;;;;;;;;;;5031874;28;20495;-58
2022/12/05 13:46:38;;;;;;;13.32;6.30;;;;;;;;;;5032152;28;20052;-58
2022/12/05 13:49:27;;;;;;;14.50;6.60;;;;;;;;;;5032701;28;20032;-58
2022/12/05 13:51:53;;;;;;;15.48;6.90;;;;;;;;;;5031491;28;20025;-58
2022/12/05 13:54:20;;;;;;;11.38;6.15;;;;;;;;;;5031190;28;20036;-58
2022/12/05 13:56:52;;;;;;;13.43;6.50;;;;;;;;;;5032037;28;20034;-58
2022/12/05 13:59:35;;;;;;;13.10;6.53;;;;;;;;;;5032402;28;20112;-58
2022/12/05 14:02:01;;;;;;;13.43;6.55;;;;;;;;;;5031140;28;20030;-58
2022/12/05 14:04:49;;;;;;;11.47;6.40;;;;;;;;;;5031217;28;20039;-58
2022/12/05 14:07:34;;;;;;;11.60;5.60;;;;;;;;;;5012628;28;20033;-58
2022/12/05 14:09:59;;;;;;;11.75;6.68;;;;;;;;;;5012557;28;20025;-58
2022/12/05 14:12:24;;;;;;;13.17;6.63;;;;;;;;;;5022555;28;20068;-58
2022/12/05 14:14:56;;;;;;;11.90;5.93;;;;;;;;;;5031996;28;20033;-59
2022/12/05 14:17:22;;;;;;;12.75;6.80;;;;;;;;;;5031925;28;20079;-58
2022/12/05 14:19:56;;;;;;;11.93;6.45;;;;;;;;;;5031907;28;20017;-58
2022/12/05 14:22:37;;;;;;;13.65;6.80;;;;;;;;;;5029157;28;20496;-59
2022/12/05 14:25:08;;;;;;;12.75;6.63;;;;;;;;;;5031793;28;20021;-59
2022/12/05 14:27:53;;;;;;;11.63;6.32;;;;;;;;;;5031598;28;20125;-58
2022/12/05 14:30:27;;;;;;;16.38;7.38;;;;;;;;;;5031668;28;20030;-57
2022/12/05 14:32:52;;;;;;;9.25;4.93;;;;;;;;;;5029969;28;20025;-58
2022/12/05 14:35:39;;;;;;;9.57;5.15;;;;;;;;;;5031796;28;20109;-58
2022/12/05 14:38:05;;;;;;;9.38;4.30;;;;;;;;;;5031332;28;20112;-58
2022/12/05 14:40:38;;;;;;;11.20;4.97;;;;;;;;;;5031511;28;20025;-59
2022/12/05 14:43:04;;;;;;;10.57;4.53;;;;;;;;;;5029641;28;20029;-59
2022/12/05 14:45:33;;;;;;;7.63;3.90;;;;;;;;;;5031904;28;20377;-59
2022/12/05 14:48:21;;;;;;;9.20;4.78;;;;;;;;;;5030426;28;20029;-57
2022/12/05 14:50:47;;;;;;;7.78;4.28;;;;;;;;;;5030682;28;20037;-58
2022/12/05 14:53:29;;;;;;;7.72;4.13;;;;;;;;;;5028764;28;20021;-58
2022/12/05 14:55:56;;;;;;;10.57;4.90;;;;;;;;;;5031120;28;20027;-58
2022/12/05 14:58:21;;;;;;;9.43;4.70;;;;;;;;;;5029596;28;20033;-58